Terminal Aerodrome Forecast
Issued by NWS

Home | Current Version | Previous Version | Text Only | Print | Product List | Glossary On
Versions: 1 2 3 4 5 6 7 8 9 10 11 12 13 14 15
000
FTUS44 KCRP 261100
TAFLRD
TAF
KLRD 261129Z 2612/2712 VRB03KT P6SM SCT250
      TEMPO 2612/2615 5SM BR SCT012
     FM261500 17007KT P6SM SCT020 BKN250
     FM262100 15008KT P6SM SCT120 SCT250
     FM270400 15005KT P6SM BKN100
     FM270900 14004KT 4SM BR BKN015=

USA.gov is the U.S. government's official web portal to all federal, state and local government web resources and services.